createdAt,value
2019-04-28T00:00:48.313Z,62.90
2019-04-28T00:03:17.586Z,62.90
2019-04-28T00:05:46.883Z,63.00
2019-04-28T00:08:16.154Z,63.90
2019-04-28T00:10:45.450Z,63.30
2019-04-28T00:13:14.898Z,63.10
2019-04-28T00:15:51.693Z,63.30
2019-04-28T00:18:24.455Z,64.10
2019-04-28T00:20:55.363Z,68.70
2019-04-28T00:23:28.962Z,70.20
2019-04-28T00:26:21.815Z,72.50
2019-04-28T00:28:51.330Z,73.50
2019-04-28T00:31:21.311Z,74.40
2019-04-28T00:33:51.624Z,74.50
2019-04-28T00:36:43.930Z,74.80
2019-04-28T00:39:16.939Z,76.00
2019-04-28T00:41:47.766Z,75.60
2019-04-28T00:44:18.610Z,76.60
2019-04-28T00:47:08.598Z,76.80
2019-04-28T00:49:46.731Z,77.00
2019-04-28T00:52:18.142Z,76.90
2019-04-28T00:54:47.568Z,76.60
2019-04-28T00:57:16.830Z,77.10
2019-04-28T00:59:55.165Z,76.20
2019-04-28T01:02:21.332Z,76.10
2019-04-28T01:04:51.462Z,76.90
2019-04-28T01:07:21.251Z,77.30
2019-04-28T01:09:51.652Z,77.00
2019-04-28T01:12:21.450Z,76.90
2019-04-28T01:14:52.929Z,77.40
2019-04-28T01:17:40.997Z,78.10
2019-04-28T01:20:14.828Z,78.30
2019-04-28T01:22:43.385Z,77.20
2019-04-28T01:25:13.724Z,77.20
2019-04-28T01:27:46.123Z,77.00
2019-04-28T01:30:23.175Z,76.70
2019-04-28T01:32:57.132Z,77.20
2019-04-28T01:35:26.377Z,77.40
2019-04-28T01:37:55.633Z,77.50
2019-04-28T01:40:26.538Z,77.70
2019-04-28T01:42:55.778Z,78.40
2019-04-28T01:45:24.974Z,78.10
2019-04-28T01:47:54.254Z,78.30
2019-04-28T01:50:23.503Z,78.80
2019-04-28T01:52:52.778Z,77.90
2019-04-28T01:55:22.102Z,78.00
2019-04-28T01:57:51.358Z,77.80
2019-04-28T02:00:25.289Z,78.60
2019-04-28T02:02:51.962Z,79.00
2019-04-28T02:05:21.214Z,80.00
2019-04-28T02:07:50.653Z,79.60
2019-04-28T02:10:21.748Z,79.70
2019-04-28T02:12:52.798Z,78.60
2019-04-28T02:15:22.953Z,79.30
2019-04-28T02:17:52.207Z,79.30
2019-04-28T02:20:22.846Z,79.60
2019-04-28T02:23:04.727Z,79.80
2019-04-28T02:25:35.353Z,80.20
2019-04-28T02:28:04.597Z,80.80
2019-04-28T02:30:45.482Z,80.80
2019-04-28T02:33:08.202Z,80.80
2019-04-28T02:35:37.569Z,80.40
2019-04-28T02:38:26.374Z,81.00
2019-04-28T02:40:55.586Z,80.80
2019-04-28T02:43:24.823Z,81.20
2019-04-28T02:45:54.075Z,81.20
2019-04-28T02:48:24.983Z,81.00
2019-04-28T02:51:07.839Z,81.20
2019-04-28T02:53:47.149Z,81.10
2019-04-28T02:56:16.415Z,80.90
2019-04-28T02:58:51.050Z,80.90
2019-04-28T03:01:26.241Z,80.80
2019-04-28T03:03:51.386Z,80.60
2019-04-28T03:06:20.846Z,80.40
2019-04-28T03:08:50.674Z,80.90
2019-04-28T03:11:41.231Z,81.10
2019-04-28T03:14:23.202Z,80.70
2019-04-28T03:16:53.491Z,80.10
2019-04-28T03:19:24.774Z,79.20
2019-04-28T03:21:55.683Z,79.20
2019-04-28T03:24:26.846Z,79.00
2019-04-28T03:26:57.745Z,79.40
2019-04-28T03:29:31.365Z,78.90
2019-04-28T03:32:32.762Z,79.00
2019-04-28T03:34:53.976Z,78.60
2019-04-28T03:37:23.495Z,78.50
2019-04-28T03:39:51.622Z,78.60
2019-04-28T03:42:41.351Z,78.60
2019-04-28T03:45:21.170Z,78.70
2019-04-28T03:47:51.003Z,79.10
2019-04-28T03:50:22.323Z,78.60
2019-04-28T03:52:51.602Z,78.90
2019-04-28T03:55:21.352Z,79.00
2019-04-28T03:58:03.147Z,79.00
2019-04-28T04:00:32.376Z,79.30
2019-04-28T04:03:01.548Z,79.00
2019-04-28T04:05:30.985Z,79.50
2019-04-28T04:08:01.062Z,79.50
2019-04-28T04:10:31.980Z,80.00
2019-04-28T04:13:02.891Z,80.40
2019-04-28T04:15:49.460Z,80.40
2019-04-28T04:18:20.738Z,80.90
2019-04-28T04:20:51.238Z,81.60
2019-04-28T04:23:22.877Z,81.60
2019-04-28T04:25:51.317Z,82.00
2019-04-28T04:28:20.833Z,82.40
2019-04-28T04:30:50.977Z,82.50
2019-04-28T04:33:27.338Z,82.30
2019-04-28T04:36:16.028Z,82.50
2019-04-28T04:38:46.482Z,82.30
2019-04-28T04:41:15.838Z,82.80
2019-04-28T04:43:45.029Z,83.30
2019-04-28T04:46:15.977Z,83.30
2019-04-28T04:48:57.201Z,83.40
2019-04-28T04:51:27.354Z,83.60
2019-04-28T04:53:56.598Z,83.80
2019-04-28T04:56:27.470Z,83.20
2019-04-28T04:58:56.759Z,82.00
2019-04-28T05:01:27.643Z,82.40
2019-04-28T05:03:59.647Z,82.60
2019-04-28T05:06:42.220Z,81.50
2019-04-28T05:09:11.558Z,81.30
2019-04-28T05:11:40.807Z,81.80
2019-04-28T05:14:11.921Z,81.80
2019-04-28T05:16:40.947Z,81.80
2019-04-28T05:19:10.595Z,82.30
2019-04-28T05:21:40.427Z,81.60
2019-04-28T05:24:33.413Z,81.70
2019-04-28T05:27:02.762Z,81.70
2019-04-28T05:29:32.013Z,81.10
2019-04-28T05:32:03.280Z,81.70
2019-04-28T05:34:32.170Z,82.20
2019-04-28T05:37:01.440Z,82.00
2019-04-28T05:39:31.658Z,82.30
2019-04-28T05:42:01.125Z,82.40
2019-04-28T05:44:32.162Z,81.80
2019-04-28T05:47:02.470Z,83.00
2019-04-28T05:50:02.686Z,81.80
2019-04-28T05:52:41.226Z,82.10
2019-04-28T05:55:25.316Z,82.30
2019-04-28T05:57:56.727Z,81.80
2019-04-28T06:00:39.730Z,81.90
2019-04-28T06:03:20.463Z,82.40
2019-04-28T06:06:10.232Z,82.20
2019-04-28T06:09:04.690Z,82.70
2019-04-28T06:11:41.346Z,83.30
2019-04-28T06:14:10.543Z,83.10
2019-04-28T06:16:40.679Z,83.50
2019-04-28T06:19:10.400Z,83.60
2019-04-28T06:21:39.749Z,83.70
2019-04-28T06:24:09.058Z,84.50
2019-04-28T06:26:38.266Z,84.70
2019-04-28T06:29:07.517Z,84.20
2019-04-28T06:31:36.763Z,84.40
2019-04-28T06:34:06.020Z,84.40
2019-04-28T06:36:35.811Z,84.00
2019-04-28T06:39:07.275Z,84.00
2019-04-28T06:41:36.534Z,84.20
2019-04-28T06:44:05.770Z,84.50
2019-04-28T06:46:35.014Z,84.50
2019-04-28T06:49:17.683Z,83.70
2019-04-28T06:51:49.937Z,83.40
2019-04-28T06:54:18.883Z,83.50
2019-04-28T06:56:48.119Z,82.90
2019-04-28T06:59:17.394Z,83.40
2019-04-28T07:01:48.376Z,82.80
2019-04-28T07:04:19.302Z,83.90
2019-04-28T07:07:01.272Z,83.80
2019-04-28T07:09:30.577Z,83.80
2019-04-28T07:11:59.823Z,83.90
2019-04-28T07:14:29.095Z,83.20
2019-04-28T07:16:58.371Z,83.10
2019-04-28T07:19:27.603Z,83.20
2019-04-28T07:21:59.590Z,83.30
2019-04-28T07:24:28.862Z,83.30
2019-04-28T07:26:58.197Z,83.00
2019-04-28T07:29:27.396Z,82.80
2019-04-28T07:31:56.644Z,81.70
2019-04-28T07:34:28.620Z,81.00
2019-04-28T07:36:57.795Z,79.90
2019-04-28T07:39:27.065Z,78.70
2019-04-28T07:42:09.018Z,78.50
2019-04-28T07:44:38.277Z,78.50
2019-04-28T07:47:07.587Z,77.80
2019-04-28T07:49:36.829Z,77.20
2019-04-28T07:52:16.700Z,76.90
2019-04-28T07:54:46.047Z,76.80
2019-04-28T07:57:15.286Z,75.60
2019-04-28T07:59:44.510Z,73.90
2019-04-28T08:02:14.930Z,74.00
2019-04-28T08:04:45.270Z,73.10
2019-04-28T08:07:14.533Z,73.10
2019-04-28T08:09:44.820Z,72.90
2019-04-28T08:12:14.093Z,71.70
2019-04-28T08:14:43.414Z,71.20
2019-04-28T08:17:13.778Z,71.20
2019-04-28T08:19:43.006Z,70.90
2019-04-28T08:22:12.187Z,72.10
2019-04-28T08:24:41.474Z,73.80
2019-04-28T08:27:10.771Z,72.20
2019-04-28T08:29:39.939Z,71.70
2019-04-28T08:32:13.728Z,71.90
2019-04-28T08:34:42.323Z,71.70
2019-04-28T08:37:11.543Z,70.00
2019-04-28T08:39:40.803Z,71.20
2019-04-28T08:42:10.082Z,71.60
2019-04-28T08:44:39.340Z,70.80
2019-04-28T08:47:08.606Z,72.10
2019-04-28T08:49:38.098Z,72.80
2019-04-28T08:52:08.501Z,74.90
2019-04-28T08:54:39.034Z,74.50
2019-04-28T08:57:08.313Z,73.30
2019-04-28T08:59:37.557Z,73.30
2019-04-28T09:02:06.820Z,73.50
2019-04-28T09:04:36.070Z,74.00
2019-04-28T09:07:05.350Z,74.00
2019-04-28T09:09:34.606Z,73.90
2019-04-28T09:12:03.951Z,72.20
2019-04-28T09:14:33.218Z,72.60
2019-04-28T09:17:02.417Z,73.40
2019-04-28T09:19:31.818Z,72.70
2019-04-28T09:22:01.082Z,71.90
2019-04-28T09:24:30.419Z,70.50
2019-04-28T09:26:59.699Z,70.00
2019-04-28T09:29:28.955Z,70.20
2019-04-28T09:31:58.725Z,70.80
2019-04-28T09:34:28.766Z,70.40
2019-04-28T09:36:58.147Z,69.90
2019-04-28T09:39:45.114Z,69.00
2019-04-28T09:47:44.843Z,68.60
2019-04-28T09:50:14.105Z,70.50
2019-04-28T09:52:55.666Z,69.90
2019-04-28T09:55:25.514Z,70.40
2019-04-28T09:57:54.978Z,70.40
2019-04-28T10:00:26.612Z,71.40
2019-04-28T10:02:55.857Z,71.70
2019-04-28T10:05:25.180Z,71.90
2019-04-28T10:07:55.510Z,72.50
2019-04-28T10:10:24.839Z,72.30
2019-04-28T10:12:54.111Z,73.10
2019-04-28T10:15:23.482Z,74.20
2019-04-28T10:18:00.705Z,73.60
2019-04-28T10:20:29.997Z,72.60
2019-04-28T10:22:59.259Z,72.60
2019-04-28T10:25:34.520Z,72.10
2019-04-28T10:28:03.711Z,71.60
2019-04-28T10:30:33.050Z,70.70
2019-04-28T10:33:02.313Z,70.00
2019-04-28T10:35:31.597Z,67.80
2019-04-28T10:38:00.870Z,66.90
2019-04-28T10:40:42.973Z,67.20
2019-04-28T10:43:12.303Z,67.00
2019-04-28T10:46:03.578Z,66.10
2019-04-28T10:48:32.855Z,65.40
2019-04-28T10:51:02.666Z,65.60
2019-04-28T10:53:31.919Z,64.60
2019-04-28T10:56:01.186Z,65.90
2019-04-28T10:58:30.462Z,64.20
2019-04-28T11:00:59.726Z,63.60
2019-04-28T11:03:36.598Z,63.60
2019-04-28T11:06:05.790Z,62.20
2019-04-28T11:08:36.761Z,60.80
2019-04-28T11:11:07.616Z,57.90
2019-04-28T11:13:36.868Z,56.90
2019-04-28T11:16:06.203Z,57.70
2019-04-28T11:18:35.458Z,57.70
2019-04-28T11:21:06.035Z,58.20
2019-04-28T11:23:35.354Z,58.40
2019-04-28T11:26:04.638Z,59.20
2019-04-28T11:28:33.938Z,60.30
2019-04-28T11:31:03.205Z,61.30
2019-04-28T11:33:46.124Z,62.00
2019-04-28T11:36:17.127Z,62.90
2019-04-28T11:38:46.394Z,64.40
2019-04-28T11:41:15.991Z,65.00
2019-04-28T11:43:46.918Z,66.40
2019-04-28T11:46:18.214Z,65.60
2019-04-28T11:48:47.398Z,65.10
2019-04-28T11:51:17.571Z,63.70
2019-04-28T11:53:52.872Z,63.60
2019-04-28T11:56:22.259Z,63.20
2019-04-28T11:58:51.547Z,62.30
2019-04-28T12:01:21.891Z,61.20
2019-04-28T12:03:52.829Z,61.90
2019-04-28T12:06:22.101Z,62.70
2019-04-28T12:08:53.034Z,61.70
2019-04-28T12:11:27.074Z,61.20
2019-04-28T12:14:04.099Z,61.70
2019-04-28T12:16:51.158Z,62.10
2019-04-28T12:19:28.584Z,60.80
2019-04-28T12:21:58.828Z,61.40
2019-04-28T12:24:29.316Z,62.90
2019-04-28T12:26:58.563Z,62.10
2019-04-28T12:29:35.201Z,62.90
2019-04-28T12:32:05.586Z,64.60
2019-04-28T12:34:34.834Z,66.00
2019-04-28T12:37:03.998Z,67.00
2019-04-28T12:39:36.455Z,66.60
2019-04-28T12:42:05.686Z,66.50
2019-04-28T12:44:34.902Z,67.60
2019-04-28T12:47:05.772Z,65.70
2019-04-28T12:49:45.968Z,67.00
2019-04-28T12:52:15.282Z,67.40
2019-04-28T12:54:44.795Z,66.00
2019-04-28T12:57:21.293Z,64.90
2019-04-28T12:59:53.214Z,64.70
2019-04-28T13:02:42.230Z,64.40
2019-04-28T13:05:15.823Z,63.30
2019-04-28T13:07:46.210Z,61.60
2019-04-28T13:10:15.710Z,60.70
2019-04-28T13:12:46.254Z,60.70
2019-04-28T13:15:15.517Z,59.70
2019-04-28T13:17:44.860Z,60.90
2019-04-28T13:20:20.542Z,60.10
2019-04-28T13:22:49.809Z,57.10
2019-04-28T13:25:35.005Z,59.40
2019-04-28T13:28:04.269Z,57.60
2019-04-28T13:30:33.514Z,58.70
2019-04-28T13:33:02.817Z,57.90
2019-04-28T13:35:32.571Z,58.90
2019-04-28T13:38:01.967Z,60.10
2019-04-28T13:40:32.832Z,60.30
2019-04-28T13:43:03.764Z,61.50
2019-04-28T13:45:33.037Z,63.40
2019-04-28T13:48:02.378Z,63.80
2019-04-28T13:50:33.305Z,62.60
2019-04-28T13:53:02.562Z,62.80
2019-04-28T13:55:48.486Z,63.30
2019-04-28T13:58:19.460Z,63.40
2019-04-28T14:00:57.761Z,64.50
2019-04-28T14:03:31.695Z,65.00
2019-04-28T14:06:28.043Z,63.10
2019-04-28T14:08:49.086Z,63.10
2019-04-28T14:11:18.311Z,66.10
2019-04-28T14:13:49.365Z,67.20
2019-04-28T14:16:19.788Z,65.90
2019-04-28T14:18:49.177Z,66.80
2019-04-28T14:21:18.457Z,69.10
2019-04-28T14:23:47.814Z,66.60
2019-04-28T14:26:17.150Z,69.20
2019-04-28T14:28:46.487Z,66.80
2019-04-28T14:31:18.913Z,68.00
2019-04-28T14:33:50.285Z,69.70
2019-04-28T14:36:20.600Z,71.40
2019-04-28T14:38:50.245Z,72.30
2019-04-28T14:41:19.566Z,70.80
2019-04-28T14:43:48.904Z,70.60
2019-04-28T14:46:18.121Z,70.00
2019-04-28T14:48:49.477Z,68.30
2019-04-28T14:51:18.712Z,66.40
2019-04-28T14:53:47.975Z,68.10
2019-04-28T14:56:17.226Z,67.80
2019-04-28T14:58:46.555Z,70.80
2019-04-28T15:01:20.226Z,71.20
2019-04-28T15:03:53.107Z,72.40
2019-04-28T15:06:31.913Z,71.80
2019-04-28T15:09:08.629Z,71.80
2019-04-28T15:11:44.192Z,73.30
2019-04-28T15:14:12.754Z,71.60
2019-04-28T15:16:41.877Z,72.40
2019-04-28T15:19:11.222Z,72.10
2019-04-28T15:21:46.048Z,71.90
2019-04-28T15:24:16.690Z,72.70
2019-04-28T15:26:45.941Z,72.50
2019-04-28T15:29:15.142Z,71.70
2019-04-28T15:31:44.337Z,72.00
2019-04-28T15:34:13.636Z,72.30
2019-04-28T15:36:42.886Z,71.30
2019-04-28T15:39:18.275Z,68.90
2019-04-28T15:41:47.622Z,68.80
2019-04-28T15:44:16.879Z,68.00
2019-04-28T15:46:46.144Z,68.10
2019-04-28T15:49:15.406Z,66.50
2019-04-28T15:51:44.674Z,65.80
2019-04-28T15:54:13.965Z,65.10
2019-04-28T15:56:45.011Z,66.00
2019-04-28T15:59:15.811Z,65.50
2019-04-28T16:01:45.058Z,66.00
2019-04-28T16:04:14.311Z,66.20
2019-04-28T16:06:43.583Z,66.80
2019-04-28T16:09:12.928Z,65.60
2019-04-28T16:11:48.055Z,66.10
2019-04-28T16:14:17.311Z,66.80
2019-04-28T16:16:46.573Z,66.00
2019-04-28T16:19:15.848Z,66.00
2019-04-28T16:21:46.198Z,65.70
2019-04-28T16:24:15.547Z,65.80
2019-04-28T16:26:44.823Z,66.00
2019-04-28T16:29:14.087Z,66.40
2019-04-28T16:31:43.415Z,66.50
2019-04-28T16:34:12.778Z,66.00
2019-04-28T16:36:42.103Z,66.90
2019-04-28T16:39:11.372Z,67.40
2019-04-28T16:41:44.482Z,67.30
2019-04-28T16:44:15.786Z,67.10
2019-04-28T16:46:59.110Z,67.20
2019-04-28T16:49:30.009Z,67.30
2019-04-28T16:51:59.178Z,66.70
2019-04-28T16:54:42.243Z,66.60
2019-04-28T16:57:28.120Z,66.70
2019-04-28T16:59:59.043Z,66.90
2019-04-28T17:02:29.928Z,67.70
2019-04-28T17:05:12.096Z,68.60
2019-04-28T17:07:53.917Z,68.30
2019-04-28T17:10:23.109Z,69.20
2019-04-28T17:12:52.355Z,70.50
2019-04-28T17:15:21.682Z,71.80
2019-04-28T17:17:51.143Z,72.40
2019-04-28T17:20:20.425Z,73.30
2019-04-28T17:22:49.691Z,73.40
2019-04-28T17:25:18.961Z,73.10
2019-04-28T17:27:49.284Z,73.40
2019-04-28T17:30:19.989Z,73.40
2019-04-28T17:33:01.774Z,73.60
2019-04-28T17:35:31.128Z,74.60
2019-04-28T17:38:06.857Z,75.40
2019-04-28T17:40:50.700Z,75.50
2019-04-28T17:43:19.966Z,74.90
2019-04-28T17:45:49.294Z,76.20
2019-04-28T17:48:29.222Z,76.90
2019-04-28T17:50:59.768Z,77.40
2019-04-28T17:53:29.054Z,77.50
2019-04-28T17:55:58.875Z,78.10
2019-04-28T17:58:30.635Z,77.70
2019-04-28T18:01:04.701Z,76.90
2019-04-28T18:03:38.559Z,76.80
2019-04-28T18:06:18.018Z,76.20
2019-04-28T18:08:45.470Z,75.80
2019-04-28T18:11:15.089Z,75.40
2019-04-28T18:13:44.362Z,75.20
2019-04-28T18:16:31.781Z,74.80
2019-04-28T18:19:16.671Z,74.70
2019-04-28T18:21:45.925Z,74.90
2019-04-28T18:24:16.170Z,74.60
2019-04-28T18:26:45.517Z,74.80
2019-04-28T18:29:14.876Z,75.00
2019-04-28T18:31:48.442Z,75.60
2019-04-28T18:34:22.342Z,75.50
2019-04-28T18:36:58.545Z,75.50
2019-04-28T18:39:29.341Z,75.40
2019-04-28T18:42:16.867Z,74.90
2019-04-28T18:44:46.106Z,72.60
2019-04-28T18:47:21.155Z,71.80
2019-04-28T18:49:51.421Z,71.60
2019-04-28T18:52:20.626Z,71.60
2019-04-28T18:54:49.895Z,71.10
2019-04-28T18:57:19.175Z,72.00
2019-04-28T18:59:48.894Z,71.50
2019-04-28T19:02:32.566Z,72.00
2019-04-28T19:05:01.826Z,72.50
2019-04-28T19:07:34.751Z,73.30
2019-04-28T19:10:06.172Z,74.10
2019-04-28T19:12:38.369Z,74.90
2019-04-28T19:15:11.881Z,75.50
2019-04-28T19:17:42.957Z,76.40
2019-04-28T19:20:13.761Z,76.50
2019-04-28T19:22:44.110Z,77.00
2019-04-28T19:25:16.383Z,77.60
2019-04-28T19:27:45.654Z,78.20
2019-04-28T19:30:15.053Z,78.70
2019-04-28T19:32:45.165Z,79.20
2019-04-28T19:35:14.472Z,79.20
2019-04-28T19:37:43.826Z,79.30
2019-04-28T19:40:25.662Z,79.90
2019-04-28T19:42:55.064Z,80.60
2019-04-28T19:45:24.373Z,80.60
2019-04-28T19:47:53.638Z,81.10
2019-04-28T19:50:22.899Z,81.30
2019-04-28T19:52:56.593Z,81.50
2019-04-28T19:55:25.014Z,81.60
2019-04-28T19:57:58.348Z,81.80
2019-04-28T20:00:29.246Z,82.30
2019-04-28T20:02:58.511Z,82.50
2019-04-28T20:05:27.689Z,83.00
2019-04-28T20:07:57.126Z,83.50
2019-04-28T20:10:26.453Z,83.30
2019-04-28T20:12:55.722Z,83.90
2019-04-28T20:15:24.996Z,84.10
2019-04-28T20:17:55.681Z,84.40
2019-04-28T20:20:25.046Z,84.30
2019-04-28T20:22:54.363Z,84.40
2019-04-28T20:25:23.788Z,84.80
2019-04-28T20:27:53.101Z,84.70
2019-04-28T20:30:22.385Z,85.10
2019-04-28T20:32:51.712Z,85.20
2019-04-28T20:35:25.345Z,85.20
2019-04-28T20:38:03.303Z,86.10
2019-04-28T20:40:37.897Z,86.20
2019-04-28T20:43:16.694Z,86.30
2019-04-28T20:45:48.227Z,86.20
2019-04-28T20:48:29.618Z,86.20
2019-04-28T20:50:58.867Z,86.20
2019-04-28T20:53:28.218Z,86.00
2019-04-28T20:55:57.582Z,86.50
2019-04-28T20:58:26.935Z,86.80
2019-04-28T21:01:08.842Z,87.20
2019-04-28T21:03:38.628Z,87.30
2019-04-28T21:06:07.954Z,87.90
2019-04-28T21:08:37.239Z,88.00
2019-04-28T21:11:06.448Z,88.10
2019-04-28T21:13:35.722Z,88.10
2019-04-28T21:16:04.920Z,88.20
2019-04-28T21:18:34.189Z,88.30
2019-04-28T21:21:03.442Z,88.40
2019-04-28T21:23:46.258Z,88.80
2019-04-28T21:26:18.095Z,88.60
2019-04-28T21:28:47.371Z,88.70
2019-04-28T21:31:16.617Z,89.00
2019-04-28T21:33:45.890Z,89.00
2019-04-28T21:36:15.147Z,89.20
2019-04-28T21:38:44.396Z,89.50
2019-04-28T21:41:15.130Z,89.50
2019-04-28T21:43:46.086Z,89.50
2019-04-28T21:46:17.011Z,89.70
2019-04-28T21:48:47.929Z,89.80
2019-04-28T21:51:17.159Z,90.00
2019-04-28T21:53:46.463Z,90.00
2019-04-28T21:56:15.646Z,90.00
2019-04-28T21:58:47.627Z,90.20
2019-04-28T22:01:19.034Z,90.30
2019-04-28T22:03:48.484Z,90.30
2019-04-28T22:06:40.074Z,90.30
2019-04-28T22:09:09.766Z,90.20
2019-04-28T22:11:40.628Z,90.30
2019-04-28T22:14:09.886Z,90.40
2019-04-28T22:16:39.130Z,90.50
2019-04-28T22:19:08.350Z,90.60
2019-04-28T22:21:37.581Z,91.00
2019-04-28T22:24:11.332Z,90.60
2019-04-28T22:27:00.903Z,90.60
2019-04-28T22:29:30.161Z,90.70
2019-04-28T22:31:59.354Z,90.70
2019-04-28T22:34:28.608Z,90.80
2019-04-28T22:36:57.879Z,90.70
2019-04-28T22:39:27.120Z,90.60
2019-04-28T22:41:56.374Z,90.80
2019-04-28T22:44:25.633Z,90.90
2019-04-28T22:46:54.895Z,91.00
2019-04-28T22:49:24.158Z,91.00
2019-04-28T22:52:05.896Z,90.80
2019-04-28T22:54:48.919Z,91.00
2019-04-28T22:57:22.255Z,91.20
2019-04-28T22:59:56.091Z,91.00
2019-04-28T23:02:26.470Z,91.00
2019-04-28T23:04:57.413Z,91.10
2019-04-28T23:07:26.722Z,91.30
2019-04-28T23:09:56.059Z,91.20
2019-04-28T23:12:25.323Z,91.30
2019-04-28T23:14:54.664Z,91.40
2019-04-28T23:17:24.521Z,91.40
2019-04-28T23:19:53.908Z,91.40
2019-04-28T23:22:24.801Z,91.50
2019-04-28T23:24:54.071Z,91.60
2019-04-28T23:27:27.512Z,91.70
2019-04-28T23:29:56.770Z,91.60
2019-04-28T23:32:25.954Z,91.70
2019-04-28T23:34:55.201Z,91.90
2019-04-28T23:37:24.470Z,91.70
2019-04-28T23:39:53.751Z,91.80
2019-04-28T23:42:24.618Z,91.60
2019-04-28T23:44:53.949Z,91.70
2019-04-28T23:47:23.188Z,91.60
2019-04-28T23:49:53.489Z,91.60
2019-04-28T23:52:24.407Z,91.60
2019-04-28T23:54:55.306Z,91.70
2019-04-28T23:57:43.993Z,91.80
